Dades meteomassalio
Diari Summary for Setembre 1, 2017 Units:  Metric    English   Both
« Previous Day
Next Day »
Diari Semanal Mensual Anual Personalitzat
  Maxima: Minima: Mijana:
Temperatura: -17.8 °C -10.7 °C -7.3 °C
Rosada: -17.8 °C -13.7 °C -12.4 °C
Humitat: Humidity % 39 % 56 %
Velocitat del vent: 0 km/h 0 km/h 30.4 km/h
Racha vent: 0 km/h - -
Vent:- - SW
Pressio: 0 hPa 34533.8 hPa -
Pluja: 0 mm    
Historical Graphs
 
 
Tabular Data for Setembre 1, 2017
Time Temperature Dew Point Pressure Wind Wind Speed Wind Gust Humidity Rainfall Rate (Hourly) solar Conditions
-17.8 °C -17.8 °C 0 hPa Calm     Humidity % 0 mm SolarRadiationWatts/m^2 W/m2 Conditions
00:04 -9.1 °C -12.4 °C 34601.5 hPa Calm     68 % 0 mm 0.0 W/m2 RA
00:09 -9.1 °C -12.3 °C 34601.5 hPa Calm     69 % 0 mm 0.0 W/m2 CLR
00:14 -9.1 °C -12.4 °C 34601.5 hPa SSW 2.6 km/h   68 % 0 mm 0.0 W/m2 CLR
00:19 -9.1 °C -12.6 °C 34601.5 hPa Calm     67 % 0 mm 0.0 W/m2 CLR
00:24 -9.1 °C -12.7 °C 34601.5 hPa Calm     66 % 0 mm 0.0 W/m2 CLR
00:29 -9.1 °C -12.6 °C 34601.5 hPa Calm     67 % 0 mm 0.0 W/m2 CLR
00:34 -9.1 °C -12.3 °C 34601.5 hPa Calm     69 % 0 mm 0.0 W/m2 CLR
00:39 -9.1 °C -12.3 °C 34601.5 hPa SSE 6 km/h 6 km/h 69 % 0 mm 0.0 W/m2 CLR
00:44 -9.1 °C -12.3 °C 34611.7 hPa SSE 9 km/h 9 km/h 69 % 0 mm 0.0 W/m2 CLR
00:49 -9.1 °C -12.3 °C 34611.7 hPa Calm     69 % 0 mm 0.0 W/m2 CLR
00:54 -8.8 °C -11.9 °C 34601.5 hPa Calm     70 % 0 mm 0.0 W/m2 CLR
00:59 -8.8 °C -11.9 °C 34601.5 hPa Calm     70 % 0 mm 0.0 W/m2 CLR
01:04 -8.8 °C -11.9 °C 34611.7 hPa Calm     70 % 0 mm 0.0 W/m2 CLR
01:09 -8.8 °C -12.1 °C 34601.5 hPa Calm     68 % 0 mm 0.0 W/m2 CLR
01:14 -8.8 °C -12.2 °C 34601.5 hPa Calm     67 % 0 mm 0.0 W/m2 CLR
01:19 -9.1 °C -12.6 °C 34601.5 hPa SSW 5.1 km/h   67 % 0 mm 0.0 W/m2 CLR
01:24 -9.1 °C -12.4 °C 34601.5 hPa Calm     68 % 0 mm 0.0 W/m2 CLR
01:29 -9.4 °C -12.8 °C 34601.5 hPa SSW 9 km/h 9 km/h 67 % 0 mm 0.0 W/m2 CLR
01:34 -9.4 °C -12.8 °C 34601.5 hPa Calm     67 % 0 mm 0.0 W/m2 CLR
01:39 -9.4 °C -12.8 °C 34601.5 hPa Calm     67 % 0 mm 0.0 W/m2 CLR
01:44 -9.4 °C -12.7 °C 34601.5 hPa Calm     68 % 0 mm 0.0 W/m2 CLR
01:49 -9.4 °C -12.6 °C 34601.5 hPa Calm     69 % 0 mm 0.0 W/m2 CLR
01:54 -9.8 °C -12.7 °C 34601.5 hPa Calm     70 % 0 mm 0.0 W/m2 CLR
01:59 -9.8 °C -12.7 °C 34601.5 hPa Calm     70 % 0 mm 0.0 W/m2 CLR
02:04 -9.8 °C -12.7 °C 34601.5 hPa Calm     70 % 0 mm 0.0 W/m2 CLR
02:09 -9.8 °C -12.7 °C 34601.5 hPa Calm     71 % 0 mm 0.0 W/m2 CLR
02:14 -9.8 °C -12.7 °C 34601.5 hPa Calm     70 % 0 mm 0.0 W/m2 CLR
02:19 -9.8 °C -12.7 °C 34611.7 hPa Calm     70 % 0 mm 0.0 W/m2 CLR
02:24 -9.8 °C -12.7 °C 34601.5 hPa Calm     70 % 0 mm 0.0 W/m2 CLR
02:29 -9.8 °C -12.7 °C 34601.5 hPa Calm     70 % 0 mm 0.0 W/m2 CLR
02:34 -10.1 °C -13.2 °C 34601.5 hPa Calm     69 % 0 mm 0.0 W/m2 CLR
02:39 -10.1 °C -13.2 °C 34601.5 hPa Calm     69 % 0 mm 0.0 W/m2 CLR
02:40 -10.1 °C -13.2 °C 34601.5 hPa Calm     69 % 0 mm 0.0 W/m2 CLR
02:45 -10.1 °C -13.2 °C 34601.5 hPa SSW 11.9 km/h 11.9 km/h 69 % 0 mm 0.0 W/m2 CLR
02:50 -10.1 °C -13.2 °C 34601.5 hPa SSW 9 km/h 9 km/h 69 % 0 mm 0.0 W/m2 CLR
02:55 -10.4 °C -13.4 °C 34601.5 hPa South 11.9 km/h 11.9 km/h 69 % 0 mm 0.0 W/m2 CLR
03:00 -10.4 °C -13.4 °C 34601.5 hPa Calm     69 % 0 mm 0.0 W/m2 CLR
03:05 -10.4 °C -13.3 °C 34601.5 hPa SSW 15 km/h 15 km/h 70 % 0 mm 0.0 W/m2 CLR
03:10 -10.4 °C -13.3 °C 34601.5 hPa South 10.3 km/h 10.3 km/h 70 % 0 mm 0.0 W/m2 CLR
03:15 -10.4 °C -13.3 °C 34601.5 hPa Calm     70 % 0 mm 0.0 W/m2 CLR
03:20 -10.4 °C -13.2 °C 34601.5 hPa Calm     71 % 0 mm 0.0 W/m2 CLR
03:25 -10.7 °C -13.5 °C 34601.5 hPa Calm     71 % 0 mm 0.0 W/m2 CLR
03:30 -10.7 °C -13.4 °C 34601.5 hPa Calm     72 % 0 mm 0.0 W/m2 CLR
03:35 -10.7 °C -13.4 °C 34611.7 hPa South 9 km/h 9 km/h 72 % 0 mm 0.0 W/m2 CLR
03:40 -10.7 °C -13.4 °C 34611.7 hPa South 15 km/h 15 km/h 72 % 0 mm 0.0 W/m2 CLR
03:45 -10.7 °C -13.4 °C 34611.7 hPa South 3.1 km/h 3.1 km/h 72 % 0 mm 0.0 W/m2 CLR
03:50 -10.7 °C -13.3 °C 34611.7 hPa South 11.9 km/h 11.9 km/h 73 % 0 mm 0.0 W/m2 CLR
03:55 -10.7 °C -13.3 °C 34611.7 hPa SSE 11.9 km/h 11.9 km/h 73 % 0 mm 0.0 W/m2 CLR
04:00 -10.7 °C -13.2 °C 34611.7 hPa South 9 km/h 9 km/h 74 % 0 mm 0.0 W/m2 CLR
04:05 -10.7 °C -13.1 °C 34611.7 hPa Calm     75 % 0 mm 0.0 W/m2 CLR
04:10 -10.7 °C -13.1 °C 34611.7 hPa Calm     75 % 0 mm 0.0 W/m2 CLR
04:15 -10.7 °C -12.9 °C 34611.7 hPa SSW 17.9 km/h 17.9 km/h 76 % 0 mm 0.0 W/m2 CLR
04:20 -10.7 °C -12.9 °C 34611.7 hPa South 15 km/h 15 km/h 76 % 0 mm 0.0 W/m2 CLR
04:25 -10.7 °C -13.2 °C 34611.7 hPa SSW 17.9 km/h 17.9 km/h 74 % 0 mm 0.0 W/m2 CLR
04:30 -10.7 °C -13.4 °C 34611.7 hPa SSW 9 km/h 9 km/h 72 % 0 mm 0.0 W/m2 CLR
04:35 -10.7 °C -13.4 °C 34611.7 hPa SSW 15 km/h 15 km/h 72 % 0 mm 0.0 W/m2 CLR
04:40 -10.4 °C -13.2 °C 34611.7 hPa South 3.1 km/h 3.1 km/h 71 % 0 mm 0.0 W/m2 CLR
04:45 -10.4 °C -13.2 °C 34611.7 hPa Calm     71 % 0 mm 0.0 W/m2 CLR
04:50 -10.4 °C -13.1 °C 34611.7 hPa Calm     72 % 0 mm 0.0 W/m2 CLR
04:55 -10.4 °C -13 °C 34611.7 hPa Calm     73 % 0 mm 0.0 W/m2 CLR
05:00 -10.4 °C -12.9 °C 34611.7 hPa Calm     74 % 0 mm 0.0 W/m2 CLR
05:05 -10.4 °C -12.9 °C 34611.7 hPa Calm     74 % 0 mm 0.0 W/m2 CLR
05:10 -10.1 °C -12.4 °C 34611.7 hPa Calm     75 % 0 mm 0.0 W/m2 CLR
05:15 -10.1 °C -12.6 °C 34611.7 hPa Calm     74 % 0 mm 0.0 W/m2 CLR
05:20 -10.1 °C -12.8 °C 34611.7 hPa SSW 5.1 km/h 5.1 km/h 72 % 0 mm 0.0 W/m2 CLR
05:22 -10.1 °C -12.9 °C 34611.7 hPa SW 12.9 km/h 12.9 km/h 71 % 0 mm 0.0 W/m2 CLR
05:24 -10.1 °C -12.9 °C 34611.7 hPa SSW 11.9 km/h 11.9 km/h 71 % 0 mm 0.0 W/m2 CLR
05:28 -10.1 °C -13.1 °C 34611.7 hPa SSW 6 km/h   70 % 0 mm 0.0 W/m2 CLR
05:29 -10.1 °C -13.1 °C 34611.7 hPa Calm     70 % 0 mm 0.0 W/m2 CLR
05:34 -10.1 °C -13.2 °C 34611.7 hPa SSW 10.3 km/h 10.3 km/h 69 % 0 mm 0.0 W/m2 CLR
05:39 -10.1 °C -13.3 °C 34611.7 hPa SSW 18.2 km/h 18.2 km/h 68 % 0 mm 0.0 W/m2 CLR
05:44 -9.8 °C -13.1 °C 34611.7 hPa SSW 18.2 km/h 18.2 km/h 67 % 0 mm 0.0 W/m2 CLR
05:49 -9.4 °C -12.8 °C 34611.7 hPa South 23.8 km/h 23.8 km/h 67 % 0 mm 0.0 W/m2 CLR
05:54 -9.1 °C -12.7 °C 34601.5 hPa SSW 20.9 km/h 20.9 km/h 66 % 0 mm 0.0 W/m2 CLR
05:59 -8.8 °C -12.2 °C 34601.5 hPa SSW 32.8 km/h 32.8 km/h 67 % 0 mm 0.0 W/m2 CLR
06:04 -8.8 °C -12.3 °C 34601.5 hPa SW 20.9 km/h 20.9 km/h 66 % 0 mm 0.0 W/m2 CLR
06:09 -8.8 °C -12.3 °C 34611.7 hPa SSW 20.9 km/h 20.9 km/h 66 % 0 mm 0.0 W/m2 CLR
06:14 -8.8 °C -12.3 °C 34611.7 hPa SSW 23.8 km/h 23.8 km/h 66 % 0 mm 0.0 W/m2 CLR
06:19 -8.8 °C -12.3 °C 34611.7 hPa WSW 35.7 km/h 35.7 km/h 66 % 0 mm 0.0 W/m2 CLR
06:24 -8.8 °C -12.5 °C 34611.7 hPa SW 50.7 km/h 50.7 km/h 65 % 0 mm 0.0 W/m2 CLR
06:29 -8.5 °C -12.1 °C 34611.7 hPa SW 17.9 km/h 17.9 km/h 66 % 0 mm 0.0 W/m2 CLR
06:34 -8.5 °C -12.1 °C 34611.7 hPa WSW 36.2 km/h 36.2 km/h 66 % 0 mm 0.0 W/m2 CLR
06:39 -8.8 °C -12.2 °C 34611.7 hPa SSW 29.8 km/h 29.8 km/h 67 % 0 mm 0.0 W/m2 CLR
06:44 -8.8 °C -12.2 °C 34611.7 hPa SSW 23.8 km/h 23.8 km/h 67 % 0 mm 0.0 W/m2 CLR
06:49 -8.8 °C -12.2 °C 34611.7 hPa SW 38.8 km/h 38.8 km/h 67 % 0 mm 0.0 W/m2 CLR
06:54 -8.8 °C -12.2 °C 34611.7 hPa SW 38.8 km/h 38.8 km/h 67 % 0 mm 0.0 W/m2 CLR
06:59 -8.8 °C -12.1 °C 34611.7 hPa SW 23.8 km/h 23.8 km/h 68 % 0 mm 0.0 W/m2 CLR
07:04 -8.8 °C -12.1 °C 34611.7 hPa SW 36.2 km/h 36.2 km/h 68 % 0 mm 0.0 W/m2 CLR
07:09 -8.8 °C -12.1 °C 34611.7 hPa SW 29.8 km/h 29.8 km/h 68 % 0 mm 0.0 W/m2 CLR
07:14 -8.8 °C -12.2 °C 34611.7 hPa SSW 29.8 km/h 29.8 km/h 67 % 0 mm 0.0 W/m2 CLR
07:19 -8.8 °C -12.2 °C 34611.7 hPa SSW 26.9 km/h 26.9 km/h 67 % 0 mm 0.0 W/m2 OVC
07:24 -8.8 °C -12.3 °C 34611.7 hPa SW 29.8 km/h 29.8 km/h 66 % 0 mm 0.0 W/m2 OVC
07:29 -8.8 °C -12.3 °C 34611.7 hPa SSW 29.8 km/h 29.8 km/h 66 % 0 mm 0.0 W/m2 OVC
07:34 -8.8 °C -12.3 °C 34611.7 hPa SSW 20.9 km/h 20.9 km/h 66 % 0 mm 5.0 W/m2 OVC
07:39 -8.8 °C -12.3 °C 34611.7 hPa SSW 35.7 km/h 35.7 km/h 66 % 0 mm 5.0 W/m2 OVC
07:44 -8.8 °C -12.3 °C 34611.7 hPa SSW 11.9 km/h 11.9 km/h 66 % 0 mm 5.0 W/m2 OVC
07:49 -8.8 °C -12.3 °C 34611.7 hPa South 15.6 km/h 15.6 km/h 66 % 0 mm 7.0 W/m2 BKN
07:54 -8.8 °C -12.3 °C 34611.7 hPa SSW 29.8 km/h 29.8 km/h 66 % 0 mm 14.0 W/m2 BKN
07:59 -8.8 °C -12.3 °C 34611.7 hPa SSW 26.9 km/h 26.9 km/h 66 % 0 mm 16.0 W/m2 BKN
08:04 -8.5 °C -12.2 °C 34611.7 hPa SSW 29.8 km/h 29.8 km/h 65 % 0 mm 19.0 W/m2 BKN
08:09 -8.5 °C -12.2 °C 34611.7 hPa SSW 20.9 km/h 20.9 km/h 65 % 0 mm 28.0 W/m2 BKN
08:14 -8.5 °C -12.2 °C 34625.2 hPa SSW 29.8 km/h 29.8 km/h 65 % 0 mm 35.0 W/m2 BKN
08:19 -8.5 °C -12.2 °C 34625.2 hPa SSW 35.7 km/h 35.7 km/h 65 % 0 mm 42.0 W/m2 BKN
08:24 -8.5 °C -12.1 °C 34625.2 hPa SW 41.4 km/h 41.4 km/h 66 % 0 mm 49.0 W/m2 SCT
08:29 -8.5 °C -12.2 °C 34625.2 hPa SW 41.7 km/h 41.7 km/h 65 % 0 mm 60.0 W/m2 SCT
08:34 -8.5 °C -12.2 °C 34625.2 hPa SW 29.8 km/h 29.8 km/h 65 % 0 mm 58.0 W/m2 SCT
08:39 -8.5 °C -12.1 °C 34625.2 hPa SSW 32.8 km/h 32.8 km/h 66 % 0 mm 67.0 W/m2 SCT
08:40 -8.5 °C -12.1 °C 34625.2 hPa SSW 32.8 km/h 32.8 km/h 66 % 0 mm 77.0 W/m2 SCT
08:45 -8.5 °C -12.1 °C 34625.2 hPa SW 33.6 km/h 33.6 km/h 66 % 0 mm 104.0 W/m2 FEW
08:50 -8.5 °C -12.1 °C 34625.2 hPa SSW 29.8 km/h 29.8 km/h 66 % 0 mm 183.0 W/m2 CLR
08:55 -8.2 °C -11.9 °C 34625.2 hPa SW 32.8 km/h 32.8 km/h 65 % 0 mm 120.0 W/m2 CLR
09:00 -8.2 °C -11.9 °C 34625.2 hPa SSW 35.7 km/h 35.7 km/h 65 % 0 mm 253.0 W/m2 CLR
09:05 -7.9 °C -11.6 °C 34625.2 hPa SSW 41.7 km/h 41.7 km/h 65 % 0 mm 227.0 W/m2 CLR
09:10 -7.9 °C -11.6 °C 34625.2 hPa SW 50.7 km/h 50.7 km/h 65 % 0 mm 248.0 W/m2 CLR
09:15 -7.9 °C -11.7 °C 34625.2 hPa SSW 38.8 km/h 38.8 km/h 64 % 0 mm 267.0 W/m2 CLR
09:20 -7.9 °C -11.6 °C 34625.2 hPa SSW 29.8 km/h 29.8 km/h 65 % 0 mm 193.0 W/m2 CLR
09:25 -7.9 °C -11.9 °C 34625.2 hPa SW 44.7 km/h 44.7 km/h 63 % 0 mm 95.0 W/m2 CLR
09:30 -8.2 °C -11.9 °C 34625.2 hPa SW 46.7 km/h 46.7 km/h 65 % 0 mm 135.0 W/m2 CLR
09:35 -8.2 °C -12.1 °C 34635.4 hPa SSW 29.8 km/h 29.8 km/h 64 % 0 mm 357.0 W/m2 CLR
09:40 -7.9 °C -11.9 °C 34625.2 hPa SW 38.8 km/h 38.8 km/h 63 % 0 mm 404.0 W/m2 CLR
09:45 -7.6 °C -11.6 °C 34635.4 hPa WSW 35.7 km/h 35.7 km/h 63 % 0 mm 424.0 W/m2 CLR
09:50 -7.6 °C -11.6 °C 34635.4 hPa SW 44.1 km/h 44.1 km/h 63 % 0 mm 399.0 W/m2 CLR
09:55 -7.9 °C -11.9 °C 34635.4 hPa WSW 36.2 km/h 36.2 km/h 63 % 0 mm 181.0 W/m2 CLR
10:00 -7.6 °C -11.6 °C 34635.4 hPa WSW 38.8 km/h 38.8 km/h 63 % 0 mm 443.0 W/m2 CLR
10:05 -7.6 °C -11.6 °C 34635.4 hPa SW 29.8 km/h 29.8 km/h 63 % 0 mm 482.0 W/m2 CLR
10:10 -7.3 °C -11.6 °C 34635.4 hPa WSW 44.7 km/h 44.7 km/h 61 % 0 mm 608.0 W/m2 CLR
10:15 -7.3 °C -11.6 °C 34635.4 hPa WSW 32.8 km/h 32.8 km/h 61 % 0 mm 473.0 W/m2 CLR
10:20 -7.3 °C -11.6 °C 34635.4 hPa SW 38.8 km/h 38.8 km/h 61 % 0 mm 257.0 W/m2 CLR
10:25 -7.6 °C -11.7 °C 34635.4 hPa SSW 32.8 km/h 32.8 km/h 62 % 0 mm 211.0 W/m2 CLR
10:30 -7.6 °C -11.6 °C 34635.4 hPa WSW 11.9 km/h 11.9 km/h 63 % 0 mm 211.0 W/m2 CLR
10:35 -7.6 °C -11.6 °C 34645.6 hPa SW 35.7 km/h 35.7 km/h 63 % 0 mm 185.0 W/m2 CLR
10:40 -7.6 °C -11.6 °C 34645.6 hPa SW 26.9 km/h 26.9 km/h 63 % 0 mm 199.0 W/m2 CLR
10:45 -7.6 °C -11.6 °C 34645.6 hPa SW 32.8 km/h 32.8 km/h 63 % 0 mm 163.0 W/m2 CLR
10:50 -7.6 °C -11.4 °C 34645.6 hPa SW 29.8 km/h 29.8 km/h 64 % 0 mm 195.0 W/m2 CLR
10:55 -7.6 °C -11.7 °C 34645.6 hPa SSW 32.8 km/h 32.8 km/h 62 % 0 mm 257.0 W/m2 CLR
11:00 -7.6 °C -11.4 °C 34645.6 hPa WSW 20.9 km/h 20.9 km/h 64 % 0 mm 733.0 W/m2 CLR
11:06 -7.3 °C -11.6 °C 34645.6 hPa SW 44.7 km/h 44.7 km/h 61 % 0 mm 346.0 W/m2 CLR
11:11 -7 °C -11.4 °C 34645.6 hPa WSW 29.8 km/h 29.8 km/h 60 % 0 mm 726.0 W/m2 CLR
11:16 -7 °C -11.6 °C 34645.6 hPa SW 35.7 km/h 35.7 km/h 59 % 0 mm 682.0 W/m2 CLR
11:21 -7 °C -11.6 °C 34645.6 hPa WSW 38.8 km/h 38.8 km/h 59 % 0 mm 650.0 W/m2 CLR
11:26 -6.7 °C -11.3 °C 34645.6 hPa WSW 36.2 km/h 36.2 km/h 59 % 0 mm 657.0 W/m2 CLR
11:31 -6.7 °C -11.4 °C 34645.6 hPa SW 35.7 km/h 35.7 km/h 58 % 0 mm 677.0 W/m2 CLR
11:36 -6.3 °C -11.3 °C 34635.4 hPa West 26.9 km/h 26.9 km/h 57 % 0 mm 722.0 W/m2 CLR
11:41 -6.3 °C -11.3 °C 34635.4 hPa SW 32.8 km/h 32.8 km/h 57 % 0 mm 853.0 W/m2 CLR
11:46 -6.3 °C -11.3 °C 34635.4 hPa SW 17.9 km/h 17.9 km/h 57 % 0 mm 480.0 W/m2 CLR
11:51 -6.3 °C -11.3 °C 34635.4 hPa SW 29.8 km/h 29.8 km/h 57 % 0 mm 729.0 W/m2 CLR
11:56 -6.1 °C -11.3 °C 34635.4 hPa West 31.1 km/h 31.1 km/h 55 % 0 mm 703.0 W/m2 CLR
12:01 -6.1 °C -11.1 °C 34635.4 hPa WSW 35.7 km/h 35.7 km/h 56 % 0 mm 717.0 W/m2 CLR
12:06 -6.1 °C -11.3 °C 34625.2 hPa WSW 38.8 km/h 38.8 km/h 55 % 0 mm 738.0 W/m2 CLR
12:11 -6.1 °C -10.9 °C 34625.2 hPa WSW 41.7 km/h 41.7 km/h 57 % 0 mm 728.0 W/m2 CLR
12:16 -6.1 °C -11.9 °C 34625.2 hPa WSW 29.8 km/h 29.8 km/h 51 % 0 mm 751.0 W/m2 CLR
12:21 -5.7 °C -11.4 °C 34625.2 hPa SSW 23.8 km/h 23.8 km/h 52 % 0 mm 684.0 W/m2 CLR
12:26 -5.7 °C -11.9 °C 34625.2 hPa SW 44.1 km/h 44.1 km/h 49 % 0 mm 817.0 W/m2 CLR
12:31 -5.7 °C -12.1 °C 34611.7 hPa SW 32.8 km/h 32.8 km/h 48 % 0 mm 840.0 W/m2 CLR
12:36 -5.4 °C -12 °C 34625.2 hPa WSW 35.7 km/h 35.7 km/h 47 % 0 mm 837.0 W/m2 CLR
12:41 -5.1 °C -11.6 °C 34611.7 hPa SW 35.7 km/h 35.7 km/h 48 % 0 mm 789.0 W/m2 CLR
12:46 -5.4 °C -12 °C 34611.7 hPa SSW 32.8 km/h 32.8 km/h 47 % 0 mm 775.0 W/m2 CLR
12:51 -5.1 °C -11.6 °C 34611.7 hPa SSW 35.7 km/h 35.7 km/h 48 % 0 mm 779.0 W/m2 CLR
12:56 -5.1 °C -11.9 °C 34611.7 hPa SW 29.8 km/h 29.8 km/h 46 % 0 mm 789.0 W/m2 CLR
13:01 -4.8 °C -11.8 °C 34611.7 hPa WSW 41.7 km/h 41.7 km/h 45 % 0 mm 800.0 W/m2 CLR
13:06 -4.8 °C -12.2 °C 34611.7 hPa WSW 47.6 km/h 47.6 km/h 43 % 0 mm 824.0 W/m2 CLR
13:11 -4.8 °C -11.8 °C 34611.7 hPa West 38.8 km/h 38.8 km/h 45 % 0 mm 891.0 W/m2 CLR
13:16 -4.8 °C -11.8 °C 34611.7 hPa SW 36.2 km/h 36.2 km/h 45 % 0 mm 867.0 W/m2 CLR
13:21 -4.8 °C -11.8 °C 34611.7 hPa SW 38.8 km/h 38.8 km/h 45 % 0 mm 833.0 W/m2 CLR
13:26 -4.8 °C -12 °C 34601.5 hPa West 32.8 km/h 32.8 km/h 44 % 0 mm 817.0 W/m2 CLR
13:31 -4.8 °C -11.8 °C 34601.5 hPa WSW 32.8 km/h 32.8 km/h 45 % 0 mm 830.0 W/m2 CLR
13:36 -4.8 °C -12.6 °C 34601.5 hPa SSW 44.7 km/h 44.7 km/h 41 % 0 mm 754.0 W/m2 CLR
13:41 -4.5 °C -11.9 °C 34601.5 hPa WSW 44.7 km/h 44.7 km/h 43 % 0 mm 851.0 W/m2 CLR
13:51 -4.8 °C -12.4 °C 34601.5 hPa SW 44.7 km/h 44.7 km/h 42 % 0 mm 849.0 W/m2 CLR
13:56 -4.5 °C -12.7 °C 34601.5 hPa WNW 44.7 km/h 44.7 km/h 39 % 0 mm 868.0 W/m2 CLR
14:01 -4.8 °C -12.6 °C 34591.4 hPa West 44.7 km/h 44.7 km/h 41 % 0 mm 861.0 W/m2 CLR
14:06 -4.8 °C -12.8 °C 34591.4 hPa SW 44.7 km/h 44.7 km/h 40 % 0 mm 868.0 W/m2 CLR
14:11 -4.8 °C -13 °C 34591.4 hPa West 38.8 km/h 38.8 km/h 39 % 0 mm 849.0 W/m2 CLR
14:16 -4.5 °C -12.7 °C 34591.4 hPa West 47.6 km/h 47.6 km/h 39 % 0 mm 821.0 W/m2 CLR
14:21 -4.5 °C -12.6 °C 34591.4 hPa WSW 50.7 km/h 50.7 km/h 40 % 0 mm 824.0 W/m2 CLR
14:26 -4.5 °C -12.1 °C 34591.4 hPa SW 29.8 km/h 29.8 km/h 42 % 0 mm 826.0 W/m2 CLR
14:31 -4.5 °C -12.6 °C 34577.8 hPa SW 44.7 km/h 44.7 km/h 40 % 0 mm 821.0 W/m2 CLR
14:41 -4.5 °C -12.6 °C 34577.8 hPa WSW 32.8 km/h 32.8 km/h 40 % 0 mm 817.0 W/m2 CLR
14:46 -4.5 °C -12.3 °C 34577.8 hPa WSW 44.7 km/h 44.7 km/h 41 % 0 mm 837.0 W/m2 CLR
14:51 -4.5 °C -12.6 °C 34577.8 hPa WSW 47.6 km/h 47.6 km/h 40 % 0 mm 802.0 W/m2 CLR
14:56 -4.5 °C -12.1 °C 34577.8 hPa West 44.1 km/h 44.1 km/h 42 % 0 mm 803.0 W/m2 CLR
15:01 -4.5 °C -12.6 °C 34577.8 hPa WNW 41.7 km/h 41.7 km/h 40 % 0 mm 796.0 W/m2 CLR
15:06 -4.2 °C -11.8 °C 34567.7 hPa SW 33.6 km/h 33.6 km/h 42 % 0 mm 793.0 W/m2 CLR
15:11 -4.5 °C -12.1 °C 34567.7 hPa SW 44.7 km/h 44.7 km/h 42 % 0 mm 791.0 W/m2 CLR
15:16 -4.2 °C -12.3 °C 34567.7 hPa West 29.8 km/h 29.8 km/h 40 % 0 mm 786.0 W/m2 CLR
15:21 -4.2 °C -12.1 °C 34567.7 hPa WSW 41.4 km/h 41.4 km/h 41 % 0 mm 773.0 W/m2 CLR
15:26 -4.2 °C -11.8 °C 34567.7 hPa West 38.8 km/h 38.8 km/h 42 % 0 mm 770.0 W/m2 CLR
15:31 -4.2 °C -12.3 °C 34554.1 hPa SW 41.7 km/h 41.7 km/h 40 % 0 mm 758.0 W/m2 CLR
15:36 -4.2 °C -12.3 °C 34567.7 hPa West 41.7 km/h 41.7 km/h 40 % 0 mm 752.0 W/m2 CLR
15:41 -4.5 °C -12.1 °C 34554.1 hPa WSW 41.7 km/h 41.7 km/h 42 % 0 mm 744.0 W/m2 CLR
15:46 -4.5 °C -12.1 °C 34554.1 hPa SW 47.6 km/h 47.6 km/h 42 % 0 mm 735.0 W/m2 CLR
15:51 -4.5 °C -12.1 °C 34554.1 hPa WSW 38.8 km/h 38.8 km/h 42 % 0 mm 729.0 W/m2 CLR
15:56 -4.2 °C -11.8 °C 34554.1 hPa SW 50.7 km/h 50.7 km/h 42 % 0 mm 721.0 W/m2 CLR
16:01 -4.2 °C -11.8 °C 34554.1 hPa WSW 53.6 km/h 53.6 km/h 42 % 0 mm 708.0 W/m2 CLR
16:06 -4.2 °C -11.6 °C 34544 hPa WSW 35.7 km/h 35.7 km/h 43 % 0 mm 698.0 W/m2 CLR
16:11 -4.2 °C -12.1 °C 34544 hPa West 44.7 km/h 44.7 km/h 41 % 0 mm 686.0 W/m2 CLR
16:16 -4.2 °C -12.1 °C 34544 hPa WSW 49.2 km/h 49.2 km/h 41 % 0 mm 682.0 W/m2 CLR
16:21 -4.2 °C -11.8 °C 34544 hPa WSW 53.6 km/h 53.6 km/h 42 % 0 mm 673.0 W/m2 CLR
16:26 -4.2 °C -12.1 °C 34544 hPa WSW 44.7 km/h 44.7 km/h 41 % 0 mm 663.0 W/m2 CLR
16:31 -4.2 °C -12.1 °C 34544 hPa SW 50.7 km/h 50.7 km/h 41 % 0 mm 652.0 W/m2 CLR
16:36 -3.9 °C -11.6 °C 34544 hPa West 38.8 km/h 38.8 km/h 42 % 0 mm 640.0 W/m2 CLR
16:41 -4.2 °C -11.8 °C 34544 hPa West 50.7 km/h 50.7 km/h 42 % 0 mm 631.0 W/m2 CLR
16:46 -4.2 °C -12.1 °C 34533.8 hPa West 47.6 km/h 47.6 km/h 41 % 0 mm 617.0 W/m2 CLR
16:51 -4.2 °C -11.8 °C 34533.8 hPa WSW 50.7 km/h 50.7 km/h 42 % 0 mm 605.0 W/m2 CLR
16:57 -4.2 °C -11.8 °C 34544 hPa SW 33.6 km/h 33.6 km/h 42 % 0 mm 594.0 W/m2 CLR
17:02 -3.9 °C -11.6 °C 34544 hPa WSW 56.6 km/h 56.6 km/h 42 % 0 mm 580.0 W/m2 CLR
17:07 -3.9 °C -11.6 °C 34533.8 hPa SW 29.8 km/h 29.8 km/h 42 % 0 mm 563.0 W/m2 CLR
17:12 -4.2 °C -11.8 °C 34533.8 hPa SW 56.6 km/h 56.6 km/h 42 % 0 mm 545.0 W/m2 CLR
17:17 -4.2 °C -11.8 °C 34533.8 hPa WSW 44.7 km/h 44.7 km/h 42 % 0 mm 534.0 W/m2 CLR
17:22 -4.2 °C -11.6 °C 34533.8 hPa WSW 41.7 km/h 41.7 km/h 43 % 0 mm 527.0 W/m2 CLR
17:27 -4.2 °C -11.8 °C 34533.8 hPa WSW 50.7 km/h 50.7 km/h 42 % 0 mm 508.0 W/m2 CLR
17:32 -4.2 °C -11.6 °C 34533.8 hPa West 56.6 km/h 56.6 km/h 43 % 0 mm 499.0 W/m2 CLR
17:37 -4.2 °C -11.8 °C 34533.8 hPa WSW 38.8 km/h 38.8 km/h 42 % 0 mm 482.0 W/m2 CLR
17:42 -4.2 °C -12.1 °C 34533.8 hPa West 69.8 km/h 69.8 km/h 41 % 0 mm 468.0 W/m2 CLR
17:47 -4.2 °C -11.8 °C 34533.8 hPa WSW 51.8 km/h 51.8 km/h 42 % 0 mm 452.0 W/m2 CLR
17:52 -4.2 °C -12.1 °C 34533.8 hPa WSW 56.6 km/h 56.6 km/h 41 % 0 mm 436.0 W/m2 CLR
17:57 -4.2 °C -11.8 °C 34533.8 hPa SW 44.7 km/h 44.7 km/h 42 % 0 mm 425.0 W/m2 CLR
18:02 -4.2 °C -11.8 °C 34533.8 hPa West 41.7 km/h 41.7 km/h 42 % 0 mm 406.0 W/m2 CLR
18:07 -4.2 °C -12.1 °C 34533.8 hPa WSW 38.8 km/h 38.8 km/h 41 % 0 mm 392.0 W/m2 CLR
18:12 -4.5 °C -12.1 °C 34533.8 hPa SW 41.7 km/h 41.7 km/h 42 % 0 mm 376.0 W/m2 CLR
18:17 -4.5 °C -12.1 °C 34533.8 hPa WSW 59.5 km/h 59.5 km/h 42 % 0 mm 362.0 W/m2 CLR
18:22 -4.5 °C -12.1 °C 34533.8 hPa SW 44.7 km/h 44.7 km/h 42 % 0 mm 348.0 W/m2 CLR
18:27 -4.5 °C -12.1 °C 34533.8 hPa WSW 47.6 km/h 47.6 km/h 42 % 0 mm 334.0 W/m2 CLR
18:32 -4.5 °C -12.3 °C 34544 hPa WSW 32.8 km/h 32.8 km/h 41 % 0 mm 318.0 W/m2 CLR
18:37 -4.8 °C -12.6 °C 34544 hPa WSW 44.7 km/h 44.7 km/h 41 % 0 mm 301.0 W/m2 CLR
18:42 -4.8 °C -12.6 °C 34544 hPa WSW 41.7 km/h 41.7 km/h 41 % 0 mm 287.0 W/m2 CLR
18:47 -4.8 °C -12.6 °C 34544 hPa WSW 44.7 km/h 44.7 km/h 41 % 0 mm 269.0 W/m2 CLR
18:52 -4.8 °C -12.6 °C 34544 hPa SW 65.5 km/h 65.5 km/h 41 % 0 mm 248.0 W/m2 CLR
18:57 -4.8 °C -12.4 °C 34544 hPa West 44.7 km/h 44.7 km/h 42 % 0 mm 230.0 W/m2 CLR
19:02 -5.1 °C -12.7 °C 34544 hPa WSW 50.7 km/h 50.7 km/h 42 % 0 mm 214.0 W/m2 CLR
19:07 -5.1 °C -12.7 °C 34544 hPa WSW 44.1 km/h 44.1 km/h 42 % 0 mm 197.0 W/m2 CLR
19:12 -5.1 °C -12.9 °C 34544 hPa SW 53.6 km/h 53.6 km/h 41 % 0 mm 179.0 W/m2 CLR
19:17 -5.1 °C -12.9 °C 34544 hPa SW 41.7 km/h 41.7 km/h 41 % 0 mm 156.0 W/m2 CLR
19:22 -5.1 °C -13.1 °C 34544 hPa West 53.6 km/h 53.6 km/h 40 % 0 mm 135.0 W/m2 CLR
19:26 -5.1 °C -12.9 °C 34544 hPa WSW 38.8 km/h 38.8 km/h 41 % 0 mm 127.0 W/m2 CLR
19:31 -5.4 °C -13.2 °C 34544 hPa SW 50.7 km/h 50.7 km/h 41 % 0 mm 113.0 W/m2 CLR
19:36 -5.4 °C -13.4 °C 34544 hPa WSW 41.4 km/h 41.4 km/h 40 % 0 mm 97.0 W/m2 CLR
19:41 -5.4 °C -13.2 °C 34544 hPa WSW 38.8 km/h 38.8 km/h 41 % 0 mm 83.0 W/m2 CLR
19:46 -5.4 °C -13.4 °C 34544 hPa WSW 29.8 km/h 29.8 km/h 40 % 0 mm 65.0 W/m2 SCT
19:51 -5.7 °C -13.6 °C 34544 hPa WSW 29.8 km/h 29.8 km/h 40 % 0 mm 54.0 W/m2 SCT
19:56 -5.7 °C -13.6 °C 34554.1 hPa WSW 47.6 km/h 47.6 km/h 40 % 0 mm 46.0 W/m2 SCT
20:01 -5.7 °C -13.4 °C 34554.1 hPa WSW 38.8 km/h 38.8 km/h 41 % 0 mm 35.0 W/m2 BKN
20:06 -5.7 °C -13.4 °C 34554.1 hPa WSW 50.7 km/h 50.7 km/h 41 % 0 mm 26.0 W/m2 BKN
20:11 -5.7 °C -13.4 °C 34554.1 hPa SW 50.7 km/h 50.7 km/h 41 % 0 mm 19.0 W/m2 BKN
20:16 -6.1 °C -13.7 °C 34554.1 hPa WSW 47.6 km/h 47.6 km/h 41 % 0 mm 16.0 W/m2 BKN
20:21 -6.1 °C -13.5 °C 34554.1 hPa SW 44.1 km/h 44.1 km/h 42 % 0 mm 12.0 W/m2 BKN
20:26 -6.1 °C -13.3 °C 34554.1 hPa WSW 50.7 km/h 50.7 km/h 43 % 0 mm 9.0 W/m2 BKN
20:31 -6.1 °C -13.3 °C 34567.7 hPa WSW 50.7 km/h 50.7 km/h 43 % 0 mm 5.0 W/m2 OVC
20:36 -6.3 °C -13.4 °C 34567.7 hPa SW 41.7 km/h 41.7 km/h 44 % 0 mm 0.0 W/m2 OVC
20:41 -6.3 °C -13.4 °C 34567.7 hPa SW 35.7 km/h 35.7 km/h 44 % 0 mm 0.0 W/m2 OVC
20:46 -6.3 °C -13.2 °C 34577.8 hPa WSW 31.1 km/h 31.1 km/h 45 % 0 mm 0.0 W/m2 CLR
20:51 -6.3 °C -13.2 °C 34577.8 hPa WSW 32.8 km/h 32.8 km/h 45 % 0 mm 0.0 W/m2 CLR
20:56 -6.7 °C -13.3 °C 34577.8 hPa West 38.8 km/h 38.8 km/h 46 % 0 mm 0.0 W/m2 CLR
21:01 -6.7 °C -13.3 °C 34577.8 hPa SW 41.4 km/h 41.4 km/h 46 % 0 mm 0.0 W/m2 CLR
21:06 -6.3 °C -13 °C 34577.8 hPa SW 41.7 km/h 41.7 km/h 46 % 0 mm 0.0 W/m2 CLR
21:11 -6.7 °C -13.2 °C 34591.4 hPa SW 35.7 km/h 35.7 km/h 47 % 0 mm 0.0 W/m2 CLR
21:16 -6.7 °C -12.9 °C 34591.4 hPa SSW 29.8 km/h 29.8 km/h 48 % 0 mm 0.0 W/m2 CLR
21:21 -6.7 °C -13.2 °C 34591.4 hPa SW 29.8 km/h 29.8 km/h 47 % 0 mm 0.0 W/m2 CLR
21:26 -7 °C -13.2 °C 34591.4 hPa SW 29.8 km/h 29.8 km/h 48 % 0 mm 0.0 W/m2 CLR
21:31 -7 °C -13.2 °C 34601.5 hPa SW 41.7 km/h 41.7 km/h 48 % 0 mm 0.0 W/m2 CLR
21:36 -7 °C -13.1 °C 34601.5 hPa SSW 29.8 km/h 29.8 km/h 49 % 0 mm 0.0 W/m2 CLR
21:41 -7 °C -13.2 °C 34601.5 hPa SSW 29.8 km/h 29.8 km/h 48 % 0 mm 0.0 W/m2 CLR
21:46 -7 °C -13.1 °C 34601.5 hPa WSW 44.7 km/h 44.7 km/h 49 % 0 mm 0.0 W/m2 CLR
21:51 -7 °C -13.2 °C 34611.7 hPa SW 41.7 km/h 41.7 km/h 48 % 0 mm 0.0 W/m2 CLR
21:56 -7 °C -13.1 °C 34611.7 hPa SW 32.8 km/h 32.8 km/h 49 % 0 mm 0.0 W/m2 CLR
22:01 -7 °C -13.1 °C 34611.7 hPa SSW 44.7 km/h 44.7 km/h 49 % 0 mm 0.0 W/m2 CLR
22:06 -7.3 °C -13.4 °C 34611.7 hPa SSW 44.7 km/h 44.7 km/h 49 % 0 mm 0.0 W/m2 CLR
22:11 -7.3 °C -13.2 °C 34625.2 hPa SW 50.7 km/h 50.7 km/h 50 % 0 mm 0.0 W/m2 CLR
22:16 -7.3 °C -13.2 °C 34611.7 hPa SSW 41.7 km/h 41.7 km/h 50 % 0 mm 0.0 W/m2 CLR
22:21 -7.3 °C -13.2 °C 34611.7 hPa SSW 50.7 km/h 50.7 km/h 50 % 0 mm 0.0 W/m2 CLR
22:26 -7.3 °C -13.1 °C 34625.2 hPa SW 50.7 km/h 50.7 km/h 51 % 0 mm 0.0 W/m2 CLR
22:31 -7.3 °C -13.1 °C 34625.2 hPa SW 47.6 km/h 47.6 km/h 51 % 0 mm 0.0 W/m2 CLR
22:36 -7.3 °C -12.9 °C 34625.2 hPa SSW 51.8 km/h 51.8 km/h 52 % 0 mm 0.0 W/m2 CLR
22:41 -7.3 °C -12.9 °C 34625.2 hPa SW 38.8 km/h 38.8 km/h 52 % 0 mm 0.0 W/m2 CLR
22:46 -7.6 °C -13 °C 34625.2 hPa SW 50.7 km/h 50.7 km/h 53 % 0 mm 0.0 W/m2 CLR
22:51 -7.6 °C -13 °C 34625.2 hPa SSW 44.7 km/h 44.7 km/h 53 % 0 mm 0.0 W/m2 CLR
22:56 -7.6 °C -13 °C 34625.2 hPa SSW 47.6 km/h 47.6 km/h 53 % 0 mm 0.0 W/m2 CLR
23:01 -7.6 °C -12.9 °C 34625.2 hPa SW 41.7 km/h 41.7 km/h 54 % 0 mm 0.0 W/m2 CLR
23:06 -7.6 °C -12.7 °C 34625.2 hPa SSW 44.7 km/h 44.7 km/h 55 % 0 mm 0.0 W/m2 CLR
23:11 -7.6 °C -12.7 °C 34625.2 hPa SW 50.7 km/h 50.7 km/h 55 % 0 mm 0.0 W/m2 CLR
23:16 -7.6 °C -12.7 °C 34635.4 hPa SW 47.6 km/h 47.6 km/h 55 % 0 mm 0.0 W/m2 CLR
23:21 -7.6 °C -12.7 °C 34635.4 hPa SSW 44.7 km/h 44.7 km/h 55 % 0 mm 0.0 W/m2 CLR
23:26 -7.6 °C -12.6 °C 34635.4 hPa SW 49.2 km/h 49.2 km/h 56 % 0 mm 0.0 W/m2 CLR
23:31 -7.9 °C -12.8 °C 34635.4 hPa SSW 54.4 km/h 54.4 km/h 56 % 0 mm 0.0 W/m2 CLR
23:36 -7.6 °C -12.4 °C 34645.6 hPa SW 47.6 km/h 47.6 km/h 57 % 0 mm 0.0 W/m2 CLR
23:41 -7.9 °C -12.7 °C 34645.6 hPa SW 50.7 km/h 50.7 km/h 57 % 0 mm 0.0 W/m2 CLR
23:46 -7.9 °C -12.7 °C 34635.4 hPa SW 47.6 km/h 47.6 km/h 57 % 0 mm 0.0 W/m2 CLR
23:51 -7.9 °C -12.6 °C 34635.4 hPa SW 44.7 km/h 44.7 km/h 58 % 0 mm 0.0 W/m2 CLR
23:56 -7.9 °C -12.6 °C 34645.6 hPa SSW 59.5 km/h 59.5 km/h 58 % 0 mm 0.0 W/m2 CLR
Lo Temps de Massalio
Compliments of Weather Underground - 1.25 mb